Flight Track Log - Related Links

Times and Time Zones

All times are in EDT time to prevent confusion due to time zone crossing. See the VH-OGL flight status page for this flight to view local times or setup timezone preferences in your user account.

Time Position Orientation Groundspeed Altitude Reporting Facility
EDT Latitude Longitude Course Direction KTS MPH feet Rate Location/Type
Mon 05:46:28 AM -33.9734 151.1807 183° South 165 190 1,500  Level Aus ATC (RADAR)
Mon 05:47:03 AM -34.0028 151.1787 173° South 185 213 2,500 2,090 Climbing Aus ATC (RADAR)
Mon 05:47:57 AM -34.0618 151.1877 165° South 247 284 4,600 2,914 Climbing Aus ATC (RADAR)
Mon 05:48:48 AM -34.1172 151.2061 191° South 254 292 7,600 3,488 Climbing Aus ATC (RADAR)
Mon 05:49:23 AM -34.1572 151.1969 265° West 255 293 9,600 2,533 Climbing Aus ATC (RADAR)
Mon 05:50:18 AM -34.1629 151.1131 329° Northwest 305 351 11,400 2,093 Climbing Aus ATC (RADAR)
Mon 05:51:32 AM -34.0484 151.0302 318° Northwest 396 456 14,100 2,605 Climbing Aus ATC (RADAR)
Mon 05:52:27 AM -33.9720 150.9463 296° West 396 456 17,000 3,000 Climbing Aus ATC (RADAR)
Mon 05:53:02 AM -33.9423 150.8731 295° West 402 463 18,600 2,800 Climbing Aus ATC (RADAR)
Mon 05:53:57 AM -33.8962 150.7552 296° West 410 472 21,200 2,779 Climbing Aus ATC (RADAR)
Mon 05:54:37 AM -33.8619 150.6693 296° West 414 476 23,000 2,463 Climbing Aus ATC (RADAR)
Mon 05:55:32 AM -33.8127 150.5497 296° West 424 488 25,100 2,352 Climbing Aus ATC (RADAR)
Mon 05:56:42 AM -33.7489 150.3948 295° West 430 495 27,900 2,400 Climbing Aus ATC (RADAR)
Mon 05:57:17 AM -33.7191 150.3177 270° West 425 489 29,300 1,765 Climbing Aus ATC (RADAR)
Mon 05:58:07 AM -33.7192 150.1976 264° West 425 489 30,400 600 Climbing Aus ATC (RADAR)
Mon 05:58:57 AM -33.7301 150.0755 264° West 431 496 30,300 -71 Descending Aus ATC (RADAR)
Mon 05:59:32 AM -33.7378 149.9909 264° West 427 491 30,300  Level Aus ATC (RADAR)
Mon 06:00:03 AM -33.7442 149.9191 264° West 424 488 30,300  Level Aus ATC (RADAR)
Mon 06:00:57 AM -33.7557 149.7875 264° West 423 487 30,300  Level Aus ATC (RADAR)
Mon 06:01:51 AM -33.7668 149.6568 264° West 419 482 30,300  Level Aus ATC (RADAR)
Mon 06:02:31 AM -33.7746 149.5614 264° West 421 484 30,300  Level Aus ATC (RADAR)
Mon 06:03:02 AM -33.7808 149.4905 264° West 420 483 30,300  Level Aus ATC (RADAR)
Mon 06:03:36 AM -33.7877 149.4070 264° West 420 483 30,300  Level Aus ATC (RADAR)
Mon 06:04:16 AM -33.7956 149.3119 265° West 421 484 30,300  Level Aus ATC (RADAR)
Mon 06:04:51 AM -33.8022 149.2284 264° West 422 486 30,300  Level Aus ATC (RADAR)
Mon 06:05:46 AM -33.8133 149.0971 264° West 422 486 30,300  Level Aus ATC (RADAR)
Mon 06:06:56 AM -33.8270 148.9295 265° West 425 489 30,300  Level Aus ATC (RADAR)
Mon 06:07:56 AM -33.8382 148.7853 265° West 426 490 30,300  Level Aus ATC (RADAR)
Mon 06:08:31 AM -33.8448 148.7013 261° West 424 488 30,300  Level Aus ATC (RADAR)
Mon 06:09:25 AM -33.8613 148.5706 259° West 424 488 30,300  Level Aus ATC (RADAR)
Mon 06:10:01 AM -33.8751 148.4883 259° West 424 488 30,300  Level Aus ATC (RADAR)
Mon 06:10:45 AM -33.8927 148.3822 259° West 423 487 30,300  Level Aus ATC (RADAR)
Mon 06:11:20 AM -33.9062 148.3000 259° West 423 487 30,300  Level Aus ATC (RADAR)
Mon 06:12:55 AM -33.9422 148.0758 259° West 424 488 30,300  Level Aus ATC (RADAR)
Mon 06:13:50 AM -33.9629 147.9452 259° West 426 490 30,300  Level Aus ATC (RADAR)
Mon 06:14:25 AM -33.9763 147.8626 259° West 425 489 30,300  Level Aus ATC (RADAR)
Mon 06:15:00 AM -33.9894 147.7794 259° West 426 490 30,300  Level Aus ATC (RADAR)
Mon 06:15:30 AM -34.0007 147.7084 259° West 425 489 30,300  Level Aus ATC (RADAR)
Mon 06:16:10 AM -34.0162 147.6141 259° West 426 490 30,300  Level Aus ATC (RADAR)
Mon 06:17:15 AM -34.0406 147.4605 259° West 425 489 30,300  Level Aus ATC (RADAR)
Mon 06:17:45 AM -34.0521 147.3901 260° West 421 484 30,300  Level Aus ATC (RADAR)
Mon 06:18:34 AM -34.0700 147.2720 259° West 424 488 30,300  Level Aus ATC (RADAR)
Mon 06:19:14 AM -34.0848 147.1781 259° West 422 486 30,300  Level Aus ATC (RADAR)
Mon 06:20:19 AM -34.1084 147.0249 260° West 422 486 30,300  Level Aus ATC (RADAR)
Mon 06:21:00 AM -34.1226 146.9305 260° West 423 487 30,300  Level Aus ATC (RADAR)
Mon 06:21:39 AM -34.1371 146.8357 259° West 424 488 30,300  Level Aus ATC (RADAR)
Mon 06:22:44 AM -34.1617 146.6814 260° West 430 495 30,300  Level Aus ATC (RADAR)
Mon 06:23:44 AM -34.1819 146.5380 260° West 431 496 30,300  Level Aus ATC (RADAR)
Mon 06:24:34 AM -34.1998 146.4174 261° West 434 499 30,300  Level Aus ATC (RADAR)
Mon 06:25:09 AM -34.2111 146.3326 260° West 433 498 30,300  Level Aus ATC (RADAR)
Mon 06:25:58 AM -34.2285 146.2110 260° West 435 501 30,300  Level Aus ATC (RADAR)
Mon 06:26:53 AM -34.2487 146.0777 261° West 434 499 30,300  Level Aus ATC (RADAR)
Mon 06:27:48 AM -34.2662 145.9432 262° West 438 504 30,300  Level Aus ATC (RADAR)
Mon 06:28:43 AM -34.2824 145.8081 261° West 440 506 30,300  Level Aus ATC (RADAR)
Mon 06:29:33 AM -34.2976 145.6850 262° West 441 507 30,300  Level Aus ATC (RADAR)
Mon 06:30:28 AM -34.3142 145.5492 262° West 442 509 30,300  Level Aus ATC (RADAR)
Mon 06:31:08 AM -34.3260 145.4500 262° West 445 512 30,300  Level Aus ATC (RADAR)
Mon 06:31:48 AM -34.3377 145.3506 262° West 446 513 30,300  Level Aus ATC (RADAR)
Mon 06:33:03 AM -34.3587 145.1644 262° West 446 513 30,300  Level Aus ATC (RADAR)
Mon 06:33:48 AM -34.3716 145.0522 262° West 447 514 30,300  Level Aus ATC (RADAR)
Mon 06:34:58 AM -34.3914 144.8782 262° West 446 513 30,300  Level Aus ATC (RADAR)
Mon 06:35:53 AM -34.4066 144.7406 262° West 446 513 30,300  Level Aus ATC (RADAR)
Mon 06:36:38 AM -34.4195 144.6294 262° West 441 507 30,300  Level Aus ATC (RADAR)
Mon 06:37:08 AM -34.4279 144.5522 262° West 453 521 30,300  Level Aus ATC (RADAR)
Mon 06:38:18 AM -34.4471 144.3791 262° West 448 516 30,300  Level Aus ATC (RADAR)
Mon 06:39:13 AM -34.4621 144.2411 262° West 448 516 30,300  Level Aus ATC (RADAR)
Mon 06:39:58 AM -34.4745 144.1284 263° West 447 514 30,300  Level Aus ATC (RADAR)
Mon 06:40:38 AM -34.4852 144.0286 263° West 444 511 30,300 67 Level Aus ATC (RADAR)
Mon 06:41:27 AM -34.4984 143.9044 263° West 441 507 30,400 58 Climbing Aus ATC (RADAR)
Mon 06:42:22 AM -34.5132 143.7649 263° West 451 519 30,400  Level Aus ATC (RADAR)
Mon 06:43:47 AM -34.5354 143.5521 263° West 425 489 30,400  Level Aus ATC (RADAR)
Mon 06:44:47 AM -34.5507 143.4009 263° West 445 512 30,400  Level Aus ATC (RADAR)
Mon 06:45:32 AM -34.5621 143.2887 263° West 451 519 30,400  Level Aus ATC (RADAR)
Mon 06:46:07 AM -34.5709 143.2009 263° West 450 518 30,400  Level Aus ATC (RADAR)
Mon 06:46:52 AM -34.5818 143.0876 263° West 449 517 30,400  Level Aus ATC (RADAR)
Mon 06:47:22 AM -34.5896 143.0123 263° West 449 517 30,400  Level Aus ATC (RADAR)
Mon 06:48:42 AM -34.6095 142.8106 263° West 452 520 30,400 43 Level Aus ATC (RADAR)
Mon 06:49:42 AM -34.6249 142.6592 263° West 451 519 30,500 52 Climbing Aus ATC (RADAR)
Mon 06:50:37 AM -34.6384 142.5204 263° West 450 518 30,500  Level Aus ATC (RADAR)
Mon 06:51:07 AM -34.6455 142.4442 263° West 453 521 30,500  Level Aus ATC (RADAR)
Mon 06:51:52 AM -34.6563 142.3303 264° West 450 518 30,500  Level Aus ATC (RADAR)
Mon 06:53:21 AM -34.6771 142.1017 264° West 452 520 30,500  Level Aus ATC (RADAR)
Mon 06:53:51 AM -34.6835 142.0254 264° West 452 520 30,500  Level Aus ATC (RADAR)
Mon 06:54:46 AM -34.6960 141.8858 264° West 453 521 30,500  Level Aus ATC (RADAR)
Mon 06:55:41 AM -34.7084 141.7467 264° West 451 519 30,500  Level Aus ATC (RADAR)
Mon 06:56:21 AM -34.7170 141.6453 264° West 453 521 30,500  Level Aus ATC (RADAR)
Mon 06:57:21 AM -34.7300 141.4941 264° West 450 518 30,500  Level Aus ATC (RADAR)
Mon 06:58:31 AM -34.7455 141.3171 264° West 448 516 30,500  Level Aus ATC (RADAR)
Mon 06:59:06 AM -34.7530 141.2285 264° West 451 519 30,500  Level Aus ATC (RADAR)
Mon 07:00:01 AM -34.7646 141.0890 265° West 453 521 30,500  Level Aus ATC (RADAR)
Mon 07:00:42 AM -34.7714 141.0000 264° West 454 522 30,500  Level Aus ATC (RADAR)
Mon 07:01:21 AM -34.7809 140.8857 264° West 453 521 30,500  Level Aus ATC (RADAR)
Mon 07:02:11 AM -34.7916 140.7587 265° West 453 521 30,500  Level Aus ATC (RADAR)
Mon 07:03:36 AM -34.8083 140.5422 265° West 455 524 30,500  Level Aus ATC (RADAR)
Mon 07:04:20 AM -34.8164 140.4275 264° West 455 524 30,500  Level Aus ATC (RADAR)
Mon 07:04:56 AM -34.8236 140.3383 265° West 455 524 30,500  Level Aus ATC (RADAR)
Mon 07:05:51 AM -34.8341 140.1978 265° West 457 526 30,500  Level Aus ATC (RADAR)
Mon 07:06:26 AM -34.8404 140.1091 265° West 451 519 30,500  Level Aus ATC (RADAR)
Mon 07:07:20 AM -34.8506 139.9694 265° West 453 521 30,500  Level Aus ATC (RADAR)
Mon 07:09:05 AM -34.8691 139.7033 265° West 451 519 30,500  Level Aus ATC (RADAR)
Mon 07:10:00 AM -34.8790 139.5639 265° West 453 521 30,500  Level Aus ATC (RADAR)
Mon 07:10:50 AM -34.8878 139.4367 265° West 454 522 30,500  Level Aus ATC (RADAR)
Mon 07:11:40 AM -34.8962 139.3095 265° West 454 522 30,500  Level Aus ATC (RADAR)
Mon 07:12:30 AM -34.9046 139.1820 265° West 455 524 30,500  Level Aus ATC (RADAR)
Mon 07:13:55 AM -34.9187 138.9647 266° West 457 526 30,500  Level Aus ATC (RADAR)
Mon 07:14:25 AM -34.9236 138.8880 266° West 457 526 30,500  Level Aus ATC (RADAR)
Mon 07:15:30 AM -34.9339 138.7219 266° West 456 525 30,500  Level Aus ATC (RADAR)
Mon 07:16:24 AM -34.9433 138.5739 266° West 600 690 30,500  Level Aus ATC (RADAR)
Mon 07:17:04 AM -34.9492 138.4775 264° West 456 525 30,500  Level Aus ATC (RADAR)
Mon 07:18:04 AM -34.9626 138.3240 264° West 457 526 30,500  Level Aus ATC (RADAR)
Mon 07:18:54 AM -34.9733 138.1955 265° West 459 528 30,500  Level Aus ATC (RADAR)
Mon 07:19:39 AM -34.9822 138.0800 265° West 459 528 30,500  Level Aus ATC (RADAR)
Mon 07:20:19 AM -34.9900 137.9776 265° West 458 527 30,500  Level Aus ATC (RADAR)
Mon 07:21:14 AM -35.0008 137.8361 265° West 459 528 30,500  Level Aus ATC (RADAR)
Mon 07:21:49 AM -35.0076 137.7460 265° West 460 529 30,500  Level Aus ATC (RADAR)
Mon 07:22:43 AM -35.0182 137.6046 265° West 458 527 30,500  Level Aus ATC (RADAR)
Mon 07:24:19 AM -35.0363 137.3595 265° West 460 529 30,500  Level Aus ATC (RADAR)
Mon 07:25:14 AM -35.0462 137.2173 265° West 462 532 30,500  Level Aus ATC (RADAR)
Mon 07:25:58 AM -35.0546 137.1008 265° West 462 532 30,500  Level Aus ATC (RADAR)
Mon 07:26:38 AM -35.0620 136.9973 265° West 461 531 30,500  Level Aus ATC (RADAR)
Mon 07:27:23 AM -35.0702 136.8805 265° West 462 532 30,500  Level Aus ATC (RADAR)
Mon 07:28:22 AM -35.0807 136.7245 265° West 464 534 30,500  Level Aus ATC (RADAR)
Mon 07:29:37 AM -35.0936 136.5294 265° West 464 534 30,500  Level Aus ATC (RADAR)
Mon 07:30:27 AM -35.1032 136.3990 265° West 465 535 30,500  Level Aus ATC (RADAR)
Mon 07:31:27 AM -35.1135 136.2423 266° West 466 536 30,500  Level Aus ATC (RADAR)
Mon 07:32:02 AM -35.1185 136.1507 265° West 466 536 30,500  Level Aus ATC (RADAR)
Mon 07:32:52 AM -35.1277 136.0200 267° West 467 537 30,500  Level Aus ATC (RADAR)
Mon 07:33:27 AM -35.1319 135.9286 265° West 466 536 30,500  Level Aus ATC (RADAR)
Mon 07:34:47 AM -35.1462 135.7188 267° West 468 539 30,500  Level Aus ATC (RADAR)
Mon 07:35:42 AM -35.1528 135.5745 264° West 468 539 30,500  Level Aus ATC (RADAR)
Mon 07:36:37 AM -35.1641 135.4311 268° West 465 535 30,500  Level Aus ATC (RADAR)
Mon 07:37:52 AM -35.1705 135.2358 264° West 461 531 30,500  Level Aus ATC (RADAR)
Mon 07:39:21 AM -35.1898 135.0036 268° West 460 529 30,500  Level Aus ATC (RADAR)
Mon 07:39:51 AM -35.1923 134.9261 268° West 458 527 30,500  Level Aus ATC (RADAR)
Mon 07:40:41 AM -35.1967 134.7970 268° West 459 528 30,500  Level Aus ATC (RADAR)
Mon 07:41:26 AM -35.1995 134.6809 266° West 459 528 30,500  Level Aus ATC (RADAR)
Mon 07:42:21 AM -35.2070 134.5381 265° West 463 533 30,500  Level Aus ATC (RADAR)
Mon 07:43:11 AM -35.2159 134.4086 267° West 463 533 30,500  Level Aus ATC (RADAR)
Mon 07:43:51 AM -35.2199 134.3049 267° West 461 531 30,500  Level Aus ATC (RADAR)
Mon 07:44:46 AM -35.2266 134.1623 267° West 460 529 30,500  Level Aus ATC (RADAR)
Mon 07:45:51 AM -35.2341 133.9935 267° West 462 532 30,500  Level Aus ATC (RADAR)
Mon 07:46:36 AM -35.2393 133.8772 267° West 460 529 30,500  Level Aus ATC (RADAR)
Mon 07:47:06 AM -35.2429 133.7994 268° West 460 529 30,500  Level Aus ATC (RADAR)
Mon 07:47:56 AM -35.2466 133.6699 277° West 460 529 30,500 -34 Level Aus ATC (RADAR)
Mon 07:51:01 AM -35.2076 133.1944 277° West 30,000 -34 Descending Aus ATC (Calculated)
Mon 07:55:32 AM -35.1520 132.5626 278° West  Level FlightAware Approximate
Mon 07:56:32 AM -35.1392 132.4229 278° West  Level FlightAware Approximate
Mon 07:57:32 AM -35.1263 132.2831 278° West  Level FlightAware Approximate
Mon 07:58:32 AM -35.1132 132.1435 278° West  Level FlightAware Approximate
Mon 07:59:32 AM -35.1000 132.0038 278° West  Level FlightAware Approximate
Mon 08:00:15 AM -35.0840 131.8172 278° West 30,000  Level Aus ATC (Calculated)
Mon 08:01:32 AM -35.0664 131.6382 278° West  Level FlightAware Approximate
Mon 08:02:38 AM -35.0422 131.3901 279° West 30,000  Level Aus ATC (Calculated)
Mon 08:02:38 AM -35.0422 131.3901 279° West 30,000 -34 Level Aus ATC (Calculated)
Mon 08:04:32 AM -35.0150 131.1243 279° West  Level FlightAware Approximate
Mon 08:05:32 AM -35.0004 130.9845 279° West  Level FlightAware Approximate
Mon 08:06:32 AM -34.9857 130.8448 279° West  Level FlightAware Approximate
Mon 08:07:32 AM -34.9708 130.7051 279° West  Level FlightAware Approximate
Mon 08:08:30 AM -34.9500 130.5122 279° West 30,000  Level Aus ATC (Calculated)
Mon 08:09:09 AM -34.9381 130.4026 279° West 30,000 -36 Level Aus ATC (Calculated)
Mon 08:10:32 AM -34.9167 130.2096 280° West  Level FlightAware Approximate
Mon 08:11:32 AM -34.9011 130.0701 280° West  Level FlightAware Approximate
Mon 08:12:10 AM -34.8892 129.9646 280° West 30,000  Level Aus ATC (Calculated)
Mon 08:13:32 AM -34.8675 129.7741 280° West  Level FlightAware Approximate
Mon 08:14:32 AM -34.8513 129.6348 280° West  Level FlightAware Approximate
Mon 08:15:32 AM -34.8351 129.4956 280° West  Level FlightAware Approximate
Mon 08:16:32 AM -34.8186 129.3564 280° West  Level FlightAware Approximate
Mon 08:17:32 AM -34.8021 129.2172 280° West  Level FlightAware Approximate
Mon 08:18:32 AM -34.7853 129.0781 280° West  Level FlightAware Approximate
Mon 08:19:32 AM -34.7684 128.9391 280° West  Level FlightAware Approximate
Mon 08:20:00 AM -34.7602 128.8717 281° West 30,000  Level Aus ATC (Calculated)
Mon 08:21:32 AM -34.7339 128.6587 281° West  Level FlightAware Approximate
Mon 08:22:32 AM -34.7165 128.5199 281° West  Level FlightAware Approximate
Mon 08:23:26 AM -34.6921 128.3266 281° West 30,000  Level Aus ATC (Calculated)
Mon 08:24:32 AM -34.6725 128.1741 281° West  Level FlightAware Approximate
Mon 08:25:00 AM -34.6641 128.1088 281° West 30,000  Level Aus ATC (Calculated)
Mon 08:25:49 AM -34.6500 128.0000 281° West 30,000 -46 Level Aus ATC (Calculated)
Mon 08:27:32 AM -34.6115 127.7599 281° West  Level FlightAware Approximate
Mon 08:28:32 AM -34.5889 127.6201 281° West  Level FlightAware Approximate
Mon 08:29:32 AM -34.5661 127.4804 282° West  Level FlightAware Approximate
Mon 08:30:33 AM -34.5753 127.4352 282° West 34,000  Level Aus ATC (Calculated)
Mon 08:31:33 AM -34.5498 127.2472 282° West 34,000 -124 Level Aus ATC (Calculated)
Mon 08:33:32 AM -34.5028 126.9707 282° West  Level FlightAware Approximate
Mon 08:34:26 AM -34.4980 126.8715 282° West 34,000  Level Aus ATC (Calculated)
Mon 08:35:32 AM -34.4713 126.7184 282° West  Level FlightAware Approximate
Mon 08:36:32 AM -34.4469 126.5793 282° West  Level FlightAware Approximate
Mon 08:37:32 AM -34.4223 126.4402 282° West  Level FlightAware Approximate
Mon 08:38:32 AM -34.3976 126.3013 283° West  Level FlightAware Approximate
Mon 08:39:32 AM -34.3727 126.1625 283° West  Level FlightAware Approximate
Mon 08:40:20 AM -34.3909 126.1214 283° West 34,000  Level Aus ATC (Calculated)
Mon 08:41:32 AM -34.3601 125.9550 283° West  Level FlightAware Approximate
Mon 08:42:32 AM -34.3344 125.8165 283° West  Level FlightAware Approximate
Mon 08:43:32 AM -34.3084 125.6780 283° West  Level FlightAware Approximate
Mon 08:44:32 AM -34.2823 125.5396 283° West  Level FlightAware Approximate
Mon 08:45:00 AM -34.3076 125.5601 283° West 34,000  Level Aus ATC (Calculated)
Mon 08:46:32 AM -34.2666 125.3483 284° West  Level FlightAware Approximate
Mon 08:47:34 AM -34.2506 125.1866 284° West 34,000  Level Aus ATC (Calculated)
Mon 08:49:32 AM -34.2075 124.9092 284° West  Level FlightAware Approximate
Mon 08:50:32 AM -34.1769 124.7706 284° West  Level FlightAware Approximate
Mon 08:51:32 AM -34.1461 124.6320 284° West  Level FlightAware Approximate
Mon 08:52:32 AM -34.1152 124.4936 284° West  Level FlightAware Approximate
Mon 08:53:32 AM -34.0842 124.3553 284° West  Level FlightAware Approximate
Mon 08:54:32 AM -34.0530 124.2171 284° West  Level FlightAware Approximate
Mon 08:55:32 AM -34.0216 124.0790 284° West  Level FlightAware Approximate
Mon 08:56:32 AM -33.9901 123.9410 285° West  Level FlightAware Approximate
Mon 08:57:32 AM -33.9584 123.8031 285° West  Level FlightAware Approximate
Mon 08:58:32 AM -33.9266 123.6653 285° West  Level FlightAware Approximate
Mon 08:59:47 AM -33.9950 123.6055 286° West 36,000  Level Aus ATC (Calculated)
Mon 09:01:32 AM -33.9358 123.3655 286° West  Level FlightAware Approximate
Mon 09:02:32 AM -33.9018 123.2285 286° West  Level FlightAware Approximate
Mon 09:03:32 AM -33.8676 123.0916 286° West  Level FlightAware Approximate
Mon 09:04:32 AM -33.8333 122.9548 286° West  Level FlightAware Approximate
Mon 09:05:32 AM -33.7988 122.8182 286° West  Level FlightAware Approximate
Mon 09:06:32 AM -33.7641 122.6816 286° West  Level FlightAware Approximate
Mon 09:07:54 AM -33.8059 122.5151 288° West 36,000  Level Aus ATC (Calculated)
Mon 09:08:23 AM -33.7883 122.4163 288° West 36,000 -504 Level Aus ATC (Calculated)
Mon 09:09:32 AM -33.7452 122.2605 288° West  Level FlightAware Approximate
Mon 09:10:14 AM -33.7527 122.2186 289° West 36,000  Level Aus ATC (Calculated)
Mon 09:11:32 AM -33.7031 122.0430 289° West  Level FlightAware Approximate
Mon 09:12:24 AM -33.6987 121.9224 289° West 36,000  Level Aus ATC (Calculated)
Mon 09:13:32 AM -33.6637 121.7667 290° West  Level FlightAware Approximate
Mon 09:14:32 AM -33.6274 121.6310 290° West  Level FlightAware Approximate
Mon 09:15:27 AM -33.5966 121.5401 290° West 36,000  Level Aus ATC (Calculated)
Mon 09:16:32 AM -33.5571 121.3933 290° West  Level FlightAware Approximate
Mon 09:17:25 AM -33.5119 121.2569 290° West 36,000  Level Aus ATC (Calculated)
Mon 09:18:32 AM -33.4711 121.1058 290° West  Level FlightAware Approximate
Mon 09:19:27 AM -33.4480 121.0449 290° West 36,000  Level Aus ATC (Calculated)
Mon 09:20:32 AM -33.4083 120.8984 291° West  Level FlightAware Approximate
Mon 09:21:32 AM -33.3715 120.7633 291° West  Level FlightAware Approximate
Mon 09:22:32 AM -33.3345 120.6283 291° West  Level FlightAware Approximate
Mon 09:23:32 AM -33.2974 120.4934 292° West  Level FlightAware Approximate
Mon 09:25:21 AM -32.8924 119.2920 291° West 445 512 27,200  Level Aus ATC (RADAR)
Mon 09:26:26 AM -32.8439 119.1418 291° West 442 509 27,200  Level Aus ATC (RADAR)
Mon 09:27:31 AM -32.7957 118.9918 291° West 438 504 27,200  Level Aus ATC (RADAR)
Mon 09:28:41 AM -32.7444 118.8292 292° West 442 509 27,200  Level Aus ATC (RADAR)
Mon 09:29:41 AM -32.6977 118.6911 290° West 444 511 27,200  Level Aus ATC (RADAR)
Mon 09:30:51 AM -32.6469 118.5277 291° West 442 509 27,200  Level Aus ATC (RADAR)
Mon 09:31:50 AM -32.6017 118.3888 291° West 442 509 27,200  Level Aus ATC (RADAR)
Mon 09:32:55 AM -32.5529 118.2387 291° West 442 509 27,200  Level Aus ATC (RADAR)
Mon 09:34:05 AM -32.5004 118.0779 291° West 438 504 27,200  Level Aus ATC (RADAR)
Mon 09:35:10 AM -32.4516 117.9290 290° West 437 503 27,200  Level Aus ATC (RADAR)
Mon 09:36:15 AM -32.4053 117.7787 291° West 439 505 27,200  Level Aus ATC (RADAR)
Mon 09:37:15 AM -32.3614 117.6412 286° West 435 501 27,200  Level Aus ATC (RADAR)
Mon 09:38:20 AM -32.3251 117.4887 285° West 431 496 27,200  Level Aus ATC (RADAR)
Mon 09:39:20 AM -32.2959 117.3639 286° West 370 426 27,200 -700 Level Aus ATC (RADAR)
Mon 09:40:20 AM -32.2690 117.2556 286° West 329 379 25,800 -1,581 Descending Aus ATC (RADAR)
Mon 09:41:29 AM -32.2394 117.1319 286° West 321 369 23,800 -1,746 Descending Aus ATC (RADAR)
Mon 09:42:34 AM -32.2124 117.0195 286° West 315 362 21,900 -1,733 Descending Aus ATC (RADAR)
Mon 09:43:44 AM -32.1841 116.9003 279° West 310 357 19,900 -1,708 Descending Aus ATC (RADAR)
Mon 09:44:44 AM -32.1704 116.7980 278° West 302 348 18,200 -1,680 Descending Aus ATC (RADAR)
Mon 09:45:49 AM -32.1568 116.6883 275° West 297 342 16,400 -1,632 Descending Aus ATC (RADAR)
Mon 09:46:49 AM -32.1493 116.5888 264° West 290 334 14,800 -1,392 Descending Aus ATC (RADAR)
Mon 09:47:54 AM -32.1580 116.4858 265° West 277 319 13,500 -1,385 Descending Aus ATC (RADAR)
Mon 09:48:59 AM -32.1658 116.3845 265° West 275 316 11,800 -1,440 Descending Aus ATC (RADAR)
Mon 09:49:59 AM -32.1731 116.2937 263° West 265 305 10,500 -1,300 Descending Aus ATC (RADAR)
Mon 09:50:59 AM -32.1818 116.2060 263° West 258 297 9,200 -1,440 Descending Aus ATC (RADAR)
Mon 09:52:04 AM -32.1909 116.1119 267° West 257 296 7,500 -1,674 Descending Aus ATC (RADAR)
Mon 09:53:08 AM -32.1950 116.0145 285° West 264 304 5,600 -1,645 Descending Aus ATC (RADAR)
Mon 09:54:08 AM -32.1768 115.9364 338° Northwest 232 267 4,100 -1,056 Descending Aus ATC (RADAR)
Mon 09:55:13 AM -32.1233 115.9112 14° North 215 247 3,400 -877 Descending Aus ATC (RADAR)
Mon 09:56:18 AM -32.0637 115.9290 14° North 204 235 2,200 -1,015 Descending Aus ATC (RADAR)
Mon 09:57:23 AM -32.0104 115.9444 14° North 173 199 1,200 -831 Descending Aus ATC (RADAR)
Mon 09:58:28 AM -31.9696 115.9567 14° North 143 165 400 -738 Descending Aus ATC (RADAR)

Login

Don't have an account? Register now (free) for customized features, flight alerts, and more!